sensor_id;sensor_type;location;lat;lon;timestamp;P1;durP1;ratioP1;P2;durP2;ratioP2
63953;SDS011;50128;52.094;5.232;2022-09-09T00:00:06;3.7;;;2.21;;
63953;SDS011;50128;52.094;5.232;2022-09-09T00:01:50;3.4;;;1.8;;
63953;SDS011;50128;52.094;5.232;2022-09-09T00:03:36;4.41;;;2.1;;
63953;SDS011;50128;52.094;5.232;2022-09-09T00:07:06;4.61;;;2.21;;
63953;SDS011;50128;52.094;5.232;2022-09-09T00:08:52;4.1;;;2.5;;
63953;SDS011;50128;52.094;5.232;2022-09-09T00:10:39;4.2;;;2.4;;
63953;SDS011;50128;52.094;5.232;2022-09-09T00:12:18;3.6;;;2.1;;
63953;SDS011;50128;52.094;5.232;2022-09-09T00:14:13;3.6;;;2.31;;
63953;SDS011;50128;52.094;5.232;2022-09-09T00:17:43;3.3;;;2.1;;
63953;SDS011;50128;52.094;5.232;2022-09-09T00:19:28;3.9;;;2.31;;
63953;SDS011;50128;52.094;5.232;2022-09-09T00:21:16;3.9;;;2.31;;
63953;SDS011;50128;52.094;5.232;2022-09-09T00:22:54;4.3;;;2.4;;
63953;SDS011;50128;52.094;5.232;2022-09-09T00:24:40;3.3;;;2.1;;
63953;SDS011;50128;52.094;5.232;2022-09-09T00:28:09;4.3;;;2.5;;
63953;SDS011;50128;52.094;5.232;2022-09-09T00:29:54;4.7;;;2.4;;
63953;SDS011;50128;52.094;5.232;2022-09-09T00:31:37;3.9;;;2.5;;
63953;SDS011;50128;52.094;5.232;2022-09-09T00:33:16;4.8;;;2.8;;
63953;SDS011;50128;52.094;5.232;2022-09-09T00:34:55;4.3;;;2.7;;
63953;SDS011;50128;52.094;5.232;2022-09-09T00:38:15;4.91;;;2.8;;
63953;SDS011;50128;52.094;5.232;2022-09-09T00:39:57;4.41;;;2.9;;
63953;SDS011;50128;52.094;5.232;2022-09-09T00:41:41;4.0;;;2.9;;
63953;SDS011;50128;52.094;5.232;2022-09-09T00:43:38;4.61;;;2.9;;
63953;SDS011;50128;52.094;5.232;2022-09-09T00:47:29;5.7;;;3.2;;
63953;SDS011;50128;52.094;5.232;2022-09-09T00:49:33;3.8;;;2.7;;
63953;SDS011;50128;52.094;5.232;2022-09-09T00:51:23;5.2;;;3.3;;
63953;SDS011;50128;52.094;5.232;2022-09-09T00:53:15;4.61;;;2.8;;
63953;SDS011;50128;52.094;5.232;2022-09-09T00:55:07;5.5;;;3.4;;
63953;SDS011;50128;52.094;5.232;2022-09-09T00:56:55;4.8;;;3.0;;
63953;SDS011;50128;52.094;5.232;2022-09-09T00:58:42;5.9;;;3.2;;
63953;SDS011;50128;52.094;5.232;2022-09-09T01:00:27;5.2;;;3.5;;
63953;SDS011;50128;52.094;5.232;2022-09-09T01:02:12;5.4;;;3.3;;
63953;SDS011;50128;52.094;5.232;2022-09-09T01:05:33;5.5;;;3.8;;
63953;SDS011;50128;52.094;5.232;2022-09-09T01:07:16;5.7;;;3.6;;
63953;SDS011;50128;52.094;5.232;2022-09-09T01:08:59;6.9;;;4.0;;
63953;SDS011;50128;52.094;5.232;2022-09-09T01:10:57;5.4;;;3.2;;
63953;SDS011;50128;52.094;5.232;2022-09-09T01:12:37;6.9;;;4.0;;
63953;SDS011;50128;52.094;5.232;2022-09-09T01:16:09;5.7;;;4.1;;
63953;SDS011;50128;52.094;5.232;2022-09-09T01:17:50;5.9;;;3.6;;
63953;SDS011;50128;52.094;5.232;2022-09-09T01:19:36;5.4;;;3.5;;
63953;SDS011;50128;52.094;5.232;2022-09-09T01:21:27;5.7;;;3.6;;
63953;SDS011;50128;52.094;5.232;2022-09-09T01:23:18;6.3;;;3.3;;
63953;SDS011;50128;52.094;5.232;2022-09-09T01:25:15;5.11;;;3.6;;
63953;SDS011;50128;52.094;5.232;2022-09-09T01:27:50;6.1;;;3.9;;
63953;SDS011;50128;52.094;5.232;2022-09-09T01:29:31;5.2;;;3.8;;
63953;SDS011;50128;52.094;5.232;2022-09-09T01:32:50;6.0;;;4.1;;
63953;SDS011;50128;52.094;5.232;2022-09-09T01:34:33;5.3;;;4.0;;
63953;SDS011;50128;52.094;5.232;2022-09-09T01:36:16;6.9;;;4.1;;
63953;SDS011;50128;52.094;5.232;2022-09-09T01:38:00;5.5;;;3.9;;
63953;SDS011;50128;52.094;5.232;2022-09-09T01:41:18;6.3;;;3.9;;
63953;SDS011;50128;52.094;5.232;2022-09-09T01:42:55;5.8;;;4.41;;
63953;SDS011;50128;52.094;5.232;2022-09-09T01:44:32;6.6;;;4.41;;
63953;SDS011;50128;52.094;5.232;2022-09-09T01:46:10;5.9;;;3.9;;
63953;SDS011;50128;52.094;5.232;2022-09-09T01:49:26;7.3;;;4.7;;
63953;SDS011;50128;52.094;5.232;2022-09-09T01:51:03;5.5;;;4.41;;
63953;SDS011;50128;52.094;5.232;2022-09-09T01:52:39;8.2;;;4.91;;
63953;SDS011;50128;52.094;5.232;2022-09-09T01:55:56;7.0;;;4.91;;
63953;SDS011;50128;52.094;5.232;2022-09-09T01:57:42;7.8;;;4.7;;
63953;SDS011;50128;52.094;5.232;2022-09-09T01:59:35;6.7;;;4.5;;
63953;SDS011;50128;52.094;5.232;2022-09-09T02:01:26;6.7;;;4.5;;
63953;SDS011;50128;52.094;5.232;2022-09-09T02:03:17;5.6;;;4.41;;
63953;SDS011;50128;52.094;5.232;2022-09-09T02:05:02;6.5;;;4.61;;
63953;SDS011;50128;52.094;5.232;2022-09-09T02:08:33;5.4;;;4.2;;
63953;SDS011;50128;52.094;5.232;2022-09-09T02:10:19;5.7;;;4.41;;
63953;SDS011;50128;52.094;5.232;2022-09-09T02:12:06;6.3;;;4.41;;
63953;SDS011;50128;52.094;5.232;2022-09-09T02:13:48;6.4;;;4.1;;
63953;SDS011;50128;52.094;5.232;2022-09-09T02:15:30;6.6;;;4.8;;
63953;SDS011;50128;52.094;5.232;2022-09-09T02:19:00;7.2;;;4.61;;
63953;SDS011;50128;52.094;5.232;2022-09-09T02:20:41;5.8;;;4.5;;
63953;SDS011;50128;52.094;5.232;2022-09-09T02:22:21;5.8;;;4.8;;
63953;SDS011;50128;52.094;5.232;2022-09-09T02:24:00;8.0;;;4.91;;
63953;SDS011;50128;52.094;5.232;2022-09-09T02:27:19;6.6;;;4.7;;
63953;SDS011;50128;52.094;5.232;2022-09-09T02:28:58;6.3;;;4.7;;
63953;SDS011;50128;52.094;5.232;2022-09-09T02:30:38;5.8;;;3.9;;
63953;SDS011;50128;52.094;5.232;2022-09-09T02:32:19;6.4;;;4.41;;
63953;SDS011;50128;52.094;5.232;2022-09-09T02:35:37;6.2;;;4.5;;
63953;SDS011;50128;52.094;5.232;2022-09-09T02:37:18;5.7;;;3.8;;
63953;SDS011;50128;52.094;5.232;2022-09-09T02:38:58;5.4;;;4.0;;
63953;SDS011;50128;52.094;5.232;2022-09-09T02:40:35;5.5;;;4.41;;
63953;SDS011;50128;52.094;5.232;2022-09-09T02:43:47;6.9;;;4.7;;
63953;SDS011;50128;52.094;5.232;2022-09-09T02:45:25;6.8;;;4.5;;
63953;SDS011;50128;52.094;5.232;2022-09-09T02:47:12;7.0;;;4.61;;
63953;SDS011;50128;52.094;5.232;2022-09-09T02:49:00;8.0;;;5.3;;
63953;SDS011;50128;52.094;5.232;2022-09-09T02:52:32;6.4;;;4.91;;
63953;SDS011;50128;52.094;5.232;2022-09-09T02:54:20;7.9;;;4.61;;
63953;SDS011;50128;52.094;5.232;2022-09-09T02:56:04;5.7;;;4.7;;
63953;SDS011;50128;52.094;5.232;2022-09-09T02:57:47;6.8;;;5.3;;
63953;SDS011;50128;52.094;5.232;2022-09-09T02:59:25;6.0;;;4.7;;
63953;SDS011;50128;52.094;5.232;2022-09-09T03:02:39;6.0;;;5.0;;
63953;SDS011;50128;52.094;5.232;2022-09-09T03:04:15;6.5;;;4.5;;
63953;SDS011;50128;52.094;5.232;2022-09-09T03:05:51;6.4;;;4.3;;
63953;SDS011;50128;52.094;5.232;2022-09-09T03:09:04;6.2;;;4.5;;
63953;SDS011;50128;52.094;5.232;2022-09-09T03:10:40;6.1;;;4.61;;
63953;SDS011;50128;52.094;5.232;2022-09-09T03:12:16;6.6;;;5.3;;
63953;SDS011;50128;52.094;5.232;2022-09-09T03:13:53;6.7;;;5.11;;
63953;SDS011;50128;52.094;5.232;2022-09-09T03:17:09;7.4;;;4.3;;
63953;SDS011;50128;52.094;5.232;2022-09-09T03:18:45;7.8;;;4.8;;
63953;SDS011;50128;52.094;5.232;2022-09-09T03:20:22;8.6;;;5.3;;
63953;SDS011;50128;52.094;5.232;2022-09-09T03:23:36;7.4;;;4.8;;
63953;SDS011;50128;52.094;5.232;2022-09-09T03:25:12;5.6;;;4.61;;
63953;SDS011;50128;52.094;5.232;2022-09-09T03:26:50;8.1;;;5.7;;
63953;SDS011;50128;52.094;5.232;2022-09-09T03:30:07;7.4;;;5.5;;
63953;SDS011;50128;52.094;5.232;2022-09-09T03:31:44;6.5;;;4.7;;
63953;SDS011;50128;52.094;5.232;2022-09-09T03:33:20;7.9;;;5.3;;
63953;SDS011;50128;52.094;5.232;2022-09-09T03:34:56;7.1;;;5.11;;
63953;SDS011;50128;52.094;5.232;2022-09-09T03:38:10;7.0;;;5.0;;
63953;SDS011;50128;52.094;5.232;2022-09-09T03:39:46;7.7;;;5.9;;
63953;SDS011;50128;52.094;5.232;2022-09-09T03:41:24;6.2;;;5.0;;
63953;SDS011;50128;52.094;5.232;2022-09-09T03:44:37;5.6;;;4.7;;
63953;SDS011;50128;52.094;5.232;2022-09-09T03:46:13;7.0;;;5.0;;
63953;SDS011;50128;52.094;5.232;2022-09-09T03:47:50;6.5;;;5.0;;
63953;SDS011;50128;52.094;5.232;2022-09-09T03:49:28;7.7;;;4.91;;
63953;SDS011;50128;52.094;5.232;2022-09-09T03:52:42;6.8;;;5.4;;
63953;SDS011;50128;52.094;5.232;2022-09-09T03:54:18;7.6;;;5.11;;
63953;SDS011;50128;52.094;5.232;2022-09-09T03:55:55;7.9;;;5.4;;
63953;SDS011;50128;52.094;5.232;2022-09-09T03:59:11;7.2;;;5.5;;
63953;SDS011;50128;52.094;5.232;2022-09-09T04:00:52;7.0;;;5.2;;
63953;SDS011;50128;52.094;5.232;2022-09-09T04:02:30;8.5;;;5.3;;
63953;SDS011;50128;52.094;5.232;2022-09-09T04:04:07;6.4;;;4.7;;
63953;SDS011;50128;52.094;5.232;2022-09-09T04:07:25;7.0;;;5.5;;
63953;SDS011;50128;52.094;5.232;2022-09-09T04:09:03;7.0;;;5.0;;
63953;SDS011;50128;52.094;5.232;2022-09-09T04:10:39;7.3;;;5.5;;
63953;SDS011;50128;52.094;5.232;2022-09-09T04:13:52;7.9;;;5.2;;
63953;SDS011;50128;52.094;5.232;2022-09-09T04:15:29;8.2;;;5.6;;
63953;SDS011;50128;52.094;5.232;2022-09-09T04:17:06;6.6;;;5.3;;
63953;SDS011;50128;52.094;5.232;2022-09-09T04:20:19;8.0;;;5.5;;
63953;SDS011;50128;52.094;5.232;2022-09-09T04:21:55;6.7;;;5.2;;
63953;SDS011;50128;52.094;5.232;2022-09-09T04:25:08;8.2;;;5.4;;
63953;SDS011;50128;52.094;5.232;2022-09-09T04:28:22;7.6;;;5.11;;
63953;SDS011;50128;52.094;5.232;2022-09-09T04:30:01;8.71;;;5.8;;
63953;SDS011;50128;52.094;5.232;2022-09-09T04:31:41;5.9;;;4.91;;
63953;SDS011;50128;52.094;5.232;2022-09-09T04:34:54;7.5;;;5.4;;
63953;SDS011;50128;52.094;5.232;2022-09-09T04:36:31;6.8;;;4.91;;
63953;SDS011;50128;52.094;5.232;2022-09-09T04:38:09;6.0;;;4.91;;
63953;SDS011;50128;52.094;5.232;2022-09-09T04:39:45;7.4;;;5.4;;
63953;SDS011;50128;52.094;5.232;2022-09-09T04:42:58;6.2;;;4.61;;
63953;SDS011;50128;52.094;5.232;2022-09-09T04:44:35;6.5;;;5.4;;
63953;SDS011;50128;52.094;5.232;2022-09-09T04:46:11;7.7;;;5.8;;
63953;SDS011;50128;52.094;5.232;2022-09-09T04:49:23;7.4;;;5.5;;
63953;SDS011;50128;52.094;5.232;2022-09-09T04:51:00;5.5;;;4.5;;
63953;SDS011;50128;52.094;5.232;2022-09-09T04:52:37;8.4;;;5.3;;
63953;SDS011;50128;52.094;5.232;2022-09-09T04:55:50;6.1;;;4.41;;
63953;SDS011;50128;52.094;5.232;2022-09-09T04:57:26;8.2;;;5.3;;
63953;SDS011;50128;52.094;5.232;2022-09-09T04:59:03;6.3;;;5.0;;
63953;SDS011;50128;52.094;5.232;2022-09-09T05:00:38;7.6;;;5.11;;
63953;SDS011;50128;52.094;5.232;2022-09-09T05:03:51;7.6;;;5.11;;
63953;SDS011;50128;52.094;5.232;2022-09-09T05:05:28;8.71;;;5.4;;
63953;SDS011;50128;52.094;5.232;2022-09-09T05:07:04;7.2;;;4.8;;
63953;SDS011;50128;52.094;5.232;2022-09-09T05:10:18;7.7;;;4.91;;
63953;SDS011;50128;52.094;5.232;2022-09-09T05:11:58;7.4;;;4.8;;
63953;SDS011;50128;52.094;5.232;2022-09-09T05:13:34;9.9;;;4.61;;
63953;SDS011;50128;52.094;5.232;2022-09-09T05:16:47;8.5;;;5.2;;
63953;SDS011;50128;52.094;5.232;2022-09-09T05:18:23;7.9;;;5.3;;
63953;SDS011;50128;52.094;5.232;2022-09-09T05:19:59;8.4;;;5.2;;
63953;SDS011;50128;52.094;5.232;2022-09-09T05:21:35;7.4;;;4.61;;
63953;SDS011;50128;52.094;5.232;2022-09-09T05:24:50;7.4;;;4.7;;
63953;SDS011;50128;52.094;5.232;2022-09-09T05:26:26;7.4;;;4.7;;
63953;SDS011;50128;52.094;5.232;2022-09-09T05:28:02;8.31;;;4.91;;
63953;SDS011;50128;52.094;5.232;2022-09-09T05:31:16;7.6;;;4.7;;
63953;SDS011;50128;52.094;5.232;2022-09-09T05:32:55;6.7;;;4.1;;
63953;SDS011;50128;52.094;5.232;2022-09-09T05:34:32;7.6;;;4.5;;
63953;SDS011;50128;52.094;5.232;2022-09-09T05:36:09;8.4;;;4.61;;
63953;SDS011;50128;52.094;5.232;2022-09-09T05:39:23;6.8;;;3.8;;
63953;SDS011;50128;52.094;5.232;2022-09-09T05:41:00;8.71;;;4.3;;
63953;SDS011;50128;52.094;5.232;2022-09-09T05:42:37;6.8;;;3.9;;
63953;SDS011;50128;52.094;5.232;2022-09-09T05:45:58;7.9;;;4.41;;
63953;SDS011;50128;52.094;5.232;2022-09-09T05:47:35;7.3;;;3.9;;
63953;SDS011;50128;52.094;5.232;2022-09-09T05:49:12;7.6;;;4.1;;
63953;SDS011;50128;52.094;5.232;2022-09-09T05:50:52;7.6;;;4.3;;
63953;SDS011;50128;52.094;5.232;2022-09-09T05:54:05;8.6;;;4.7;;
63953;SDS011;50128;52.094;5.232;2022-09-09T05:55:42;6.9;;;3.9;;
63953;SDS011;50128;52.094;5.232;2022-09-09T05:57:19;7.1;;;4.0;;
63953;SDS011;50128;52.094;5.232;2022-09-09T06:00:32;7.3;;;3.4;;
63953;SDS011;50128;52.094;5.232;2022-09-09T06:02:08;6.9;;;4.1;;
63953;SDS011;50128;52.094;5.232;2022-09-09T06:03:45;8.81;;;4.1;;
63953;SDS011;50128;52.094;5.232;2022-09-09T06:07:00;5.9;;;3.4;;
63953;SDS011;50128;52.094;5.232;2022-09-09T06:08:39;7.8;;;3.6;;
63953;SDS011;50128;52.094;5.232;2022-09-09T06:10:16;7.9;;;3.5;;
63953;SDS011;50128;52.094;5.232;2022-09-09T06:11:54;7.9;;;3.5;;
63953;SDS011;50128;52.094;5.232;2022-09-09T06:15:09;8.81;;;4.2;;
63953;SDS011;50128;52.094;5.232;2022-09-09T06:16:46;7.9;;;3.7;;
63953;SDS011;50128;52.094;5.232;2022-09-09T06:18:22;8.5;;;3.5;;
63953;SDS011;50128;52.094;5.232;2022-09-09T06:21:36;7.4;;;3.3;;
63953;SDS011;50128;52.094;5.232;2022-09-09T06:23:13;7.0;;;3.6;;
63953;SDS011;50128;52.094;5.232;2022-09-09T06:24:49;8.4;;;3.8;;
63953;SDS011;50128;52.094;5.232;2022-09-09T06:26:25;8.4;;;3.5;;
63953;SDS011;50128;52.094;5.232;2022-09-09T06:29:39;6.5;;;3.2;;
63953;SDS011;50128;52.094;5.232;2022-09-09T06:31:17;7.9;;;3.8;;
63953;SDS011;50128;52.094;5.232;2022-09-09T06:32:55;7.2;;;3.4;;
63953;SDS011;50128;52.094;5.232;2022-09-09T06:36:10;7.5;;;3.4;;
63953;SDS011;50128;52.094;5.232;2022-09-09T06:37:48;7.2;;;3.1;;
63953;SDS011;50128;52.094;5.232;2022-09-09T06:39:24;7.2;;;3.1;;
63953;SDS011;50128;52.094;5.232;2022-09-09T06:41:01;8.2;;;3.4;;
63953;SDS011;50128;52.094;5.232;2022-09-09T06:44:15;8.71;;;3.6;;
63953;SDS011;50128;52.094;5.232;2022-09-09T06:45:52;8.1;;;4.1;;
63953;SDS011;50128;52.094;5.232;2022-09-09T06:47:30;7.5;;;3.1;;
63953;SDS011;50128;52.094;5.232;2022-09-09T06:50:43;9.6;;;3.7;;
63953;SDS011;50128;52.094;5.232;2022-09-09T06:52:19;6.5;;;2.9;;
63953;SDS011;50128;52.094;5.232;2022-09-09T06:53:56;6.8;;;3.1;;
63953;SDS011;50128;52.094;5.232;2022-09-09T06:57:11;10.7;;;3.3;;
63953;SDS011;50128;52.094;5.232;2022-09-09T06:58:48;7.0;;;3.2;;
63953;SDS011;50128;52.094;5.232;2022-09-09T07:00:26;7.5;;;3.3;;
63953;SDS011;50128;52.094;5.232;2022-09-09T07:02:03;9.31;;;3.4;;
63953;SDS011;50128;52.094;5.232;2022-09-09T07:05:16;7.8;;;3.2;;
63953;SDS011;50128;52.094;5.232;2022-09-09T07:06:52;7.4;;;3.0;;
63953;SDS011;50128;52.094;5.232;2022-09-09T07:08:28;7.2;;;3.2;;
63953;SDS011;50128;52.094;5.232;2022-09-09T07:11:42;9.0;;;3.1;;
63953;SDS011;50128;52.094;5.232;2022-09-09T07:13:23;6.9;;;2.6;;
63953;SDS011;50128;52.094;5.232;2022-09-09T07:15:01;7.5;;;2.9;;
63953;SDS011;50128;52.094;5.232;2022-09-09T07:16:37;10.8;;;3.1;;
63953;SDS011;50128;52.094;5.232;2022-09-09T07:19:49;9.6;;;3.0;;
63953;SDS011;50128;52.094;5.232;2022-09-09T07:21:26;8.71;;;3.0;;
63953;SDS011;50128;52.094;5.232;2022-09-09T07:23:04;6.7;;;2.5;;
63953;SDS011;50128;52.094;5.232;2022-09-09T07:26:17;8.6;;;2.9;;
63953;SDS011;50128;52.094;5.232;2022-09-09T07:27:57;8.6;;;3.1;;
63953;SDS011;50128;52.094;5.232;2022-09-09T07:29:33;6.9;;;2.8;;
63953;SDS011;50128;52.094;5.232;2022-09-09T07:32:51;6.5;;;2.7;;
63953;SDS011;50128;52.094;5.232;2022-09-09T07:34:27;8.2;;;2.9;;
63953;SDS011;50128;52.094;5.232;2022-09-09T07:36:05;8.9;;;3.2;;
63953;SDS011;50128;52.094;5.232;2022-09-09T07:37:43;7.9;;;2.8;;
63953;SDS011;50128;52.094;5.232;2022-09-09T07:41:02;8.1;;;2.8;;
63953;SDS011;50128;52.094;5.232;2022-09-09T07:42:39;7.1;;;3.1;;
63953;SDS011;50128;52.094;5.232;2022-09-09T07:44:16;8.1;;;2.9;;
63953;SDS011;50128;52.094;5.232;2022-09-09T07:45:57;8.5;;;3.4;;
63953;SDS011;50128;52.094;5.232;2022-09-09T07:49:10;7.9;;;3.0;;
63953;SDS011;50128;52.094;5.232;2022-09-09T07:50:47;7.4;;;3.1;;
63953;SDS011;50128;52.094;5.232;2022-09-09T07:52:23;7.8;;;3.3;;
63953;SDS011;50128;52.094;5.232;2022-09-09T07:55:38;9.0;;;3.2;;
63953;SDS011;50128;52.094;5.232;2022-09-09T07:57:15;7.6;;;2.5;;
63953;SDS011;50128;52.094;5.232;2022-09-09T07:58:52;8.9;;;3.0;;
63953;SDS011;50128;52.094;5.232;2022-09-09T08:00:30;10.21;;;3.0;;
63953;SDS011;50128;52.094;5.232;2022-09-09T08:03:44;9.9;;;3.3;;
63953;SDS011;50128;52.094;5.232;2022-09-09T08:05:28;8.31;;;3.0;;
63953;SDS011;50128;52.094;5.232;2022-09-09T08:07:04;10.21;;;3.1;;
63953;SDS011;50128;52.094;5.232;2022-09-09T08:10:18;7.9;;;2.7;;
63953;SDS011;50128;52.094;5.232;2022-09-09T08:11:56;8.0;;;2.5;;
63953;SDS011;50128;52.094;5.232;2022-09-09T08:13:33;9.4;;;2.21;;
63953;SDS011;50128;52.094;5.232;2022-09-09T08:15:10;7.9;;;2.5;;
63953;SDS011;50128;52.094;5.232;2022-09-09T08:18:26;7.8;;;2.6;;
63953;SDS011;50128;52.094;5.232;2022-09-09T08:20:05;7.4;;;2.5;;
63953;SDS011;50128;52.094;5.232;2022-09-09T08:21:42;8.6;;;2.6;;
63953;SDS011;50128;52.094;5.232;2022-09-09T08:24:57;9.5;;;2.4;;
63953;SDS011;50128;52.094;5.232;2022-09-09T08:26:35;8.0;;;2.21;;
63953;SDS011;50128;52.094;5.232;2022-09-09T08:28:12;6.7;;;2.31;;
63953;SDS011;50128;52.094;5.232;2022-09-09T08:29:48;8.5;;;2.7;;
63953;SDS011;50128;52.094;5.232;2022-09-09T08:34:41;6.8;;;2.31;;
63953;SDS011;50128;52.094;5.232;2022-09-09T08:36:19;8.9;;;2.5;;
63953;SDS011;50128;52.094;5.232;2022-09-09T08:39:34;5.4;;;2.21;;
63953;SDS011;50128;52.094;5.232;2022-09-09T08:41:15;7.1;;;2.31;;
63953;SDS011;50128;52.094;5.232;2022-09-09T08:43:42;8.0;;;2.31;;
63953;SDS011;50128;52.094;5.232;2022-09-09T08:45:25;7.6;;;2.8;;
63953;SDS011;50128;52.094;5.232;2022-09-09T08:47:08;9.1;;;2.21;;
63953;SDS011;50128;52.094;5.232;2022-09-09T08:48:59;9.1;;;2.21;;
63953;SDS011;50128;52.094;5.232;2022-09-09T08:50:43;7.8;;;2.4;;
63953;SDS011;50128;52.094;5.232;2022-09-09T08:54:03;7.2;;;2.21;;
63953;SDS011;50128;52.094;5.232;2022-09-09T08:55:42;6.9;;;2.4;;
63953;SDS011;50128;52.094;5.232;2022-09-09T08:57:21;7.3;;;2.4;;
63953;SDS011;50128;52.094;5.232;2022-09-09T08:59:03;7.6;;;2.4;;
63953;SDS011;50128;52.094;5.232;2022-09-09T09:02:46;9.4;;;3.0;;
63953;SDS011;50128;52.094;5.232;2022-09-09T09:04:38;7.6;;;2.6;;
63953;SDS011;50128;52.094;5.232;2022-09-09T09:06:31;8.81;;;2.6;;
63953;SDS011;50128;52.094;5.232;2022-09-09T09:08:22;8.2;;;2.4;;
63953;SDS011;50128;52.094;5.232;2022-09-09T09:10:09;7.6;;;2.5;;
63953;SDS011;50128;52.094;5.232;2022-09-09T09:12:01;6.4;;;2.31;;
63953;SDS011;50128;52.094;5.232;2022-09-09T09:13:44;10.1;;;2.4;;
63953;SDS011;50128;52.094;5.232;2022-09-09T09:17:14;8.2;;;2.7;;
63953;SDS011;50128;52.094;5.232;2022-09-09T09:18:54;10.0;;;2.8;;
63953;SDS011;50128;52.094;5.232;2022-09-09T09:20:32;6.7;;;2.31;;
63953;SDS011;50128;52.094;5.232;2022-09-09T09:22:20;9.4;;;2.5;;
63953;SDS011;50128;52.094;5.232;2022-09-09T09:25:38;7.6;;;2.4;;
63953;SDS011;50128;52.094;5.232;2022-09-09T09:27:20;7.6;;;2.5;;
63953;SDS011;50128;52.094;5.232;2022-09-09T09:29:10;8.1;;;2.6;;
63953;SDS011;50128;52.094;5.232;2022-09-09T09:30:49;7.6;;;2.31;;
63953;SDS011;50128;52.094;5.232;2022-09-09T09:34:11;9.21;;;2.7;;
63953;SDS011;50128;52.094;5.232;2022-09-09T09:35:48;8.2;;;2.5;;
63953;SDS011;50128;52.094;5.232;2022-09-09T09:37:26;8.81;;;2.6;;
63953;SDS011;50128;52.094;5.232;2022-09-09T09:39:06;7.3;;;2.31;;
63953;SDS011;50128;52.094;5.232;2022-09-09T09:42:29;7.6;;;2.21;;
63953;SDS011;50128;52.094;5.232;2022-09-09T09:44:06;8.81;;;2.6;;
63953;SDS011;50128;52.094;5.232;2022-09-09T09:46:00;10.3;;;3.1;;
63953;SDS011;50128;52.094;5.232;2022-09-09T09:47:41;10.0;;;2.8;;
63953;SDS011;50128;52.094;5.232;2022-09-09T09:49:17;11.4;;;3.1;;
63953;SDS011;50128;52.094;5.232;2022-09-09T09:52:34;9.71;;;2.9;;
63953;SDS011;50128;52.094;5.232;2022-09-09T09:54:15;8.6;;;3.4;;
63953;SDS011;50128;52.094;5.232;2022-09-09T09:55:59;7.4;;;2.7;;
63953;SDS011;50128;52.094;5.232;2022-09-09T09:57:39;9.5;;;3.9;;
63953;SDS011;50128;52.094;5.232;2022-09-09T10:01:18;9.71;;;3.2;;
63953;SDS011;50128;52.094;5.232;2022-09-09T10:02:59;10.5;;;2.8;;
63953;SDS011;50128;52.094;5.232;2022-09-09T10:04:35;7.3;;;2.5;;
63953;SDS011;50128;52.094;5.232;2022-09-09T10:06:12;6.8;;;2.7;;
63953;SDS011;50128;52.094;5.232;2022-09-09T10:09:37;8.71;;;3.0;;
63953;SDS011;50128;52.094;5.232;2022-09-09T10:11:19;10.1;;;3.4;;
63953;SDS011;50128;52.094;5.232;2022-09-09T10:13:08;9.5;;;2.7;;
63953;SDS011;50128;52.094;5.232;2022-09-09T10:14:52;9.1;;;3.1;;
63953;SDS011;50128;52.094;5.232;2022-09-09T10:16:42;7.3;;;2.1;;
63953;SDS011;50128;52.094;5.232;2022-09-09T10:20:28;9.81;;;2.8;;
63953;SDS011;50128;52.094;5.232;2022-09-09T10:22:16;7.8;;;2.31;;
63953;SDS011;50128;52.094;5.232;2022-09-09T10:24:07;6.4;;;2.4;;
63953;SDS011;50128;52.094;5.232;2022-09-09T10:26:04;8.2;;;2.9;;
63953;SDS011;50128;52.094;5.232;2022-09-09T10:28:14;7.7;;;2.6;;
63953;SDS011;50128;52.094;5.232;2022-09-09T10:30:58;10.21;;;3.3;;
63953;SDS011;50128;52.094;5.232;2022-09-09T10:32:53;8.4;;;2.5;;
63953;SDS011;50128;52.094;5.232;2022-09-09T10:34:46;9.31;;;2.9;;
63953;SDS011;50128;52.094;5.232;2022-09-09T10:36:31;8.6;;;3.0;;
63953;SDS011;50128;52.094;5.232;2022-09-09T10:38:16;8.31;;;2.9;;
63953;SDS011;50128;52.094;5.232;2022-09-09T10:40:00;7.2;;;2.5;;
63953;SDS011;50128;52.094;5.232;2022-09-09T10:41:53;8.0;;;2.5;;
63953;SDS011;50128;52.094;5.232;2022-09-09T10:43:43;8.0;;;2.6;;
63953;SDS011;50128;52.094;5.232;2022-09-09T10:47:28;9.71;;;3.2;;
63953;SDS011;50128;52.094;5.232;2022-09-09T10:49:27;8.4;;;3.3;;
63953;SDS011;50128;52.094;5.232;2022-09-09T10:51:23;9.21;;;2.8;;
63953;SDS011;50128;52.094;5.232;2022-09-09T10:53:08;7.9;;;3.0;;
63953;SDS011;50128;52.094;5.232;2022-09-09T10:54:53;7.5;;;2.9;;
63953;SDS011;50128;52.094;5.232;2022-09-09T10:56:36;7.5;;;2.8;;
63953;SDS011;50128;52.094;5.232;2022-09-09T11:00:01;8.0;;;2.9;;
63953;SDS011;50128;52.094;5.232;2022-09-09T11:01:43;7.1;;;3.0;;
63953;SDS011;50128;52.094;5.232;2022-09-09T11:03:23;6.1;;;2.5;;
63953;SDS011;50128;52.094;5.232;2022-09-09T11:05:03;8.0;;;3.3;;
63953;SDS011;50128;52.094;5.232;2022-09-09T11:06:54;8.1;;;3.0;;
63953;SDS011;50128;52.094;5.232;2022-09-09T11:10:16;7.8;;;2.9;;
63953;SDS011;50128;52.094;5.232;2022-09-09T11:12:00;8.0;;;2.9;;
63953;SDS011;50128;52.094;5.232;2022-09-09T11:13:39;8.71;;;3.1;;
63953;SDS011;50128;52.094;5.232;2022-09-09T11:15:23;7.7;;;2.6;;
63953;SDS011;50128;52.094;5.232;2022-09-09T11:17:15;8.4;;;3.2;;
63953;SDS011;50128;52.094;5.232;2022-09-09T11:20:41;8.9;;;3.1;;
63953;SDS011;50128;52.094;5.232;2022-09-09T11:22:22;7.3;;;2.6;;
63953;SDS011;50128;52.094;5.232;2022-09-09T11:24:14;8.71;;;2.9;;
63953;SDS011;50128;52.094;5.232;2022-09-09T11:25:57;5.8;;;2.7;;
63953;SDS011;50128;52.094;5.232;2022-09-09T11:27:41;7.4;;;2.8;;
63953;SDS011;50128;52.094;5.232;2022-09-09T11:31:44;8.0;;;2.4;;
63953;SDS011;50128;52.094;5.232;2022-09-09T11:33:35;7.0;;;2.31;;
63953;SDS011;50128;52.094;5.232;2022-09-09T11:35:34;7.0;;;2.5;;
63953;SDS011;50128;52.094;5.232;2022-09-09T11:37:29;7.8;;;2.5;;
63953;SDS011;50128;52.094;5.232;2022-09-09T11:39:28;6.8;;;2.21;;
63953;SDS011;50128;52.094;5.232;2022-09-09T11:41:40;6.7;;;2.21;;
63953;SDS011;50128;52.094;5.232;2022-09-09T11:43:18;6.6;;;2.4;;
63953;SDS011;50128;52.094;5.232;2022-09-09T11:45:08;7.6;;;2.5;;
63953;SDS011;50128;52.094;5.232;2022-09-09T11:46:46;6.2;;;2.1;;
63953;SDS011;50128;52.094;5.232;2022-09-09T11:50:10;5.9;;;2.21;;
63953;SDS011;50128;52.094;5.232;2022-09-09T11:52:10;5.4;;;2.0;;
63953;SDS011;50128;52.094;5.232;2022-09-09T11:53:56;5.9;;;2.4;;
63953;SDS011;50128;52.094;5.232;2022-09-09T11:55:36;6.7;;;2.5;;
63953;SDS011;50128;52.094;5.232;2022-09-09T11:57:16;7.6;;;2.5;;
63953;SDS011;50128;52.094;5.232;2022-09-09T11:59:03;8.4;;;3.0;;
63953;SDS011;50128;52.094;5.232;2022-09-09T12:02:21;6.1;;;2.7;;
63953;SDS011;50128;52.094;5.232;2022-09-09T12:04:05;8.2;;;2.9;;
63953;SDS011;50128;52.094;5.232;2022-09-09T12:05:49;7.3;;;3.3;;
63953;SDS011;50128;52.094;5.232;2022-09-09T12:07:30;7.6;;;3.2;;
63953;SDS011;50128;52.094;5.232;2022-09-09T12:10:59;6.5;;;2.9;;
63953;SDS011;50128;52.094;5.232;2022-09-09T12:12:36;7.5;;;3.0;;
63953;SDS011;50128;52.094;5.232;2022-09-09T12:14:19;8.0;;;3.2;;
63953;SDS011;50128;52.094;5.232;2022-09-09T12:16:26;8.4;;;3.0;;
63953;SDS011;50128;52.094;5.232;2022-09-09T12:18:04;7.9;;;3.2;;
63953;SDS011;50128;52.094;5.232;2022-09-09T12:21:40;7.3;;;3.1;;
63953;SDS011;50128;52.094;5.232;2022-09-09T12:23:29;6.5;;;2.8;;
63953;SDS011;50128;52.094;5.232;2022-09-09T12:25:16;8.5;;;3.8;;
63953;SDS011;50128;52.094;5.232;2022-09-09T12:27:01;7.3;;;3.3;;
63953;SDS011;50128;52.094;5.232;2022-09-09T12:28:46;8.31;;;3.3;;
63953;SDS011;50128;52.094;5.232;2022-09-09T12:30:32;7.2;;;3.2;;
63953;SDS011;50128;52.094;5.232;2022-09-09T12:34:04;7.1;;;2.9;;
63953;SDS011;50128;52.094;5.232;2022-09-09T12:35:49;6.1;;;2.8;;
63953;SDS011;50128;52.094;5.232;2022-09-09T12:37:32;7.9;;;3.2;;
63953;SDS011;50128;52.094;5.232;2022-09-09T12:39:15;7.2;;;3.4;;
63953;SDS011;50128;52.094;5.232;2022-09-09T12:40:56;7.9;;;3.8;;
63953;SDS011;50128;52.094;5.232;2022-09-09T12:44:15;6.8;;;3.0;;
63953;SDS011;50128;52.094;5.232;2022-09-09T12:45:57;6.5;;;3.6;;
63953;SDS011;50128;52.094;5.232;2022-09-09T12:47:39;6.1;;;3.0;;
63953;SDS011;50128;52.094;5.232;2022-09-09T12:49:25;6.7;;;3.2;;
63953;SDS011;50128;52.094;5.232;2022-09-09T12:52:59;6.4;;;3.0;;
63953;SDS011;50128;52.094;5.232;2022-09-09T12:54:42;8.5;;;3.7;;
63953;SDS011;50128;52.094;5.232;2022-09-09T12:56:21;8.0;;;3.4;;
63953;SDS011;50128;52.094;5.232;2022-09-09T12:58:00;7.8;;;3.2;;
63953;SDS011;50128;52.094;5.232;2022-09-09T12:59:39;6.9;;;3.0;;